Time;durP1;ratioP1;P1;durP2;ratioP2;P2;SDS_P1;SDS_P2;PMS_P1;PMS_P2;Temp;Humidity;BMP_temperature;BMP_pressure;BME280_temperature;BME280_humidity;BME280_pressure;Samples;Min_cycle;Max_cycle;Signal;HPM_P1;HPM_P2
2023/09/25 00:02:27;;;;;;;4.88;1.73;;;;;;;12.14;85.15;102053.72;5006356;28;20104;-77
2023/09/25 00:04:54;;;;;;;3.38;1.50;;;;;;;12.13;84.60;102054.63;4997350;28;20041;-77
2023/09/25 00:07:21;;;;;;;5.10;1.70;;;;;;;12.13;84.97;102054.63;5007222;28;20136;-76
2023/09/25 00:09:48;;;;;;;4.95;1.90;;;;;;;12.13;84.90;102058.13;5007941;28;20057;-76
2023/09/25 00:12:15;;;;;;;2.72;1.52;;;;;;;12.11;85.16;102055.53;5007180;28;20034;-76
2023/09/25 00:14:42;;;;;;;3.22;1.90;;;;;;;12.11;85.00;102060.81;5007774;28;20045;-76
2023/09/25 00:17:09;;;;;;;5.85;1.60;;;;;;;12.13;84.85;102052.00;5008742;28;20053;-76
2023/09/25 00:19:36;;;;;;;3.28;1.60;;;;;;;12.11;84.54;102054.63;5007811;28;20054;-77
2023/09/25 00:22:04;;;;;;;4.35;1.88;;;;;;;12.11;85.22;102054.63;5006101;28;20609;-78
2023/09/25 00:24:31;;;;;;;2.80;1.60;;;;;;;12.11;84.87;102063.47;5007768;28;20056;-77
2023/09/25 00:26:58;;;;;;;4.43;1.58;;;;;;;12.13;84.46;102054.63;5006196;28;20057;-78
2023/09/25 00:29:25;;;;;;;4.53;1.73;;;;;;;12.10;84.19;102069.63;5005501;28;20042;-77
2023/09/25 00:31:53;;;;;;;3.97;1.77;;;;;;;12.10;84.39;102066.13;5007276;28;20418;-76
2023/09/25 00:34:20;;;;;;;3.50;1.83;;;;;;;12.09;84.27;102067.03;5002734;28;20045;-76
2023/09/25 00:36:48;;;;;;;3.67;1.60;;;;;;;12.10;84.10;102068.78;5004340;28;20098;-76
2023/09/25 00:39:15;;;;;;;3.83;1.50;;;;;;;12.08;83.80;102071.44;5003330;28;20115;-77
2023/09/25 00:41:42;;;;;;;3.05;1.58;;;;;;;12.10;83.75;102076.72;5006311;28;20073;-77
2023/09/25 00:44:09;;;;;;;4.55;1.70;;;;;;;12.08;83.94;102066.13;5021209;28;20719;-76
2023/09/25 00:46:36;;;;;;;4.55;1.80;;;;;;;12.10;84.17;102066.13;5006914;28;20048;-77
2023/09/25 00:49:04;;;;;;;3.65;1.80;;;;;;;12.11;84.07;102057.28;5038023;28;20050;-77
2023/09/25 00:51:31;;;;;;;3.03;1.50;;;;;;;12.09;83.93;102064.38;5005372;28;20048;-77
2023/09/25 00:53:58;;;;;;;3.70;1.80;;;;;;;12.07;83.95;102059.09;5004652;28;20092;-78
2023/09/25 00:56:25;;;;;;;3.58;1.60;;;;;;;12.05;84.33;102052.13;5006667;28;20037;-79
2023/09/25 00:58:54;;;;;;;4.28;1.70;;;;;;;12.04;84.29;102063.56;5014381;28;20127;-78
2023/09/25 01:01:22;;;;;;;3.00;1.58;;;;;;;12.01;84.32;102053.03;5005702;28;20050;-77
2023/09/25 01:03:50;;;;;;;5.57;1.70;;;;;;;11.98;84.27;102059.28;5002656;28;20478;-78
2023/09/25 01:06:18;;;;;;;4.65;1.83;;;;;;;11.96;84.32;102047.81;5000954;28;20112;-79
2023/09/25 01:08:46;;;;;;;4.32;1.80;;;;;;;11.95;84.49;102054.88;5004347;28;20049;-78
2023/09/25 01:11:13;;;;;;;4.43;2.13;;;;;;;11.93;84.42;102064.59;5007758;28;20050;-78
2023/09/25 01:13:41;;;;;;;6.70;1.90;;;;;;;11.92;84.79;102060.22;5003399;28;20049;-79
2023/09/25 01:16:08;;;;;;;4.50;1.70;;;;;;;11.91;84.81;102066.38;4993017;28;20058;-79
2023/09/25 01:18:35;;;;;;;2.88;1.70;;;;;;;11.91;84.82;102063.75;4991211;28;20054;-79
2023/09/25 01:21:03;;;;;;;4.05;1.83;;;;;;;11.88;84.83;102061.19;5007198;28;20538;-79
2023/09/25 01:23:30;;;;;;;4.43;1.63;;;;;;;11.85;84.94;102061.22;5005899;28;20085;-79
2023/09/25 01:25:58;;;;;;;5.38;1.80;;;;;;;11.84;84.88;102066.53;5006058;28;20062;-76
2023/09/25 01:28:25;;;;;;;2.88;1.80;;;;;;;11.79;84.84;102062.19;5004594;28;20121;-76
2023/09/25 01:30:54;;;;;;;4.05;1.98;;;;;;;11.78;84.76;102065.72;5005813;28;20050;-78
2023/09/25 01:33:22;;;;;;;4.68;1.95;;;;;;;11.78;85.01;102056.94;5006556;28;20064;-78
2023/09/25 01:35:49;;;;;;;6.20;1.90;;;;;;;11.76;85.11;102054.28;5004800;28;20049;-78
2023/09/25 01:38:18;;;;;;;4.63;1.65;;;;;;;11.76;85.27;102058.72;5005001;28;20176;-76
2023/09/25 01:40:45;;;;;;;4.97;2.00;;;;;;;11.75;85.12;102051.69;5006105;28;20070;-76
2023/09/25 01:43:12;;;;;;;3.13;2.03;;;;;;;11.73;85.35;102058.75;5005581;28;20054;-75
2023/09/25 01:45:39;;;;;;;3.97;1.83;;;;;;;11.71;85.19;102052.63;5020692;28;20041;-74
2023/09/25 01:48:06;;;;;;;5.28;2.17;;;;;;;11.69;85.06;102055.28;5008729;28;20045;-76
2023/09/25 01:50:34;;;;;;;3.83;1.98;;;;;;;11.68;84.99;102056.19;5036433;28;20069;-76
2023/09/25 01:53:03;;;;;;;4.25;1.90;;;;;;;11.69;85.38;102051.78;5006089;28;20120;-76
2023/09/25 01:55:36;;;;;;;2.92;1.60;;;;;;;11.71;85.32;102063.19;5005588;28;20151;-76
2023/09/25 01:58:04;;;;;;;7.00;2.03;;;;;;;11.68;85.20;102050.91;5001302;28;20125;-76
2023/09/25 02:00:31;;;;;;;5.88;2.15;;;;;;;11.69;85.51;102047.38;5002431;28;20046;-76
2023/09/25 02:02:59;;;;;;;5.10;2.00;;;;;;;11.69;85.38;102057.09;5005270;28;20038;-76
2023/09/25 02:05:27;;;;;;;4.00;1.98;;;;;;;11.69;85.67;102046.50;5005400;28;20048;-76
2023/09/25 02:07:54;;;;;;;4.57;1.90;;;;;;;11.70;85.55;102048.25;5006849;28;20050;-76
2023/09/25 02:10:21;;;;;;;3.05;2.10;;;;;;;11.69;85.80;102043.88;5005847;28;20135;-76
2023/09/25 02:12:48;;;;;;;4.43;1.83;;;;;;;11.72;nan;102047.34;5005614;28;20056;-76
2023/09/25 02:15:16;;;;;;;5.03;1.95;;;;;;;11.71;85.60;102045.59;5006539;28;20034;-75
2023/09/25 02:17:43;;;;;;;3.42;2.15;;;;;;;11.70;85.54;102048.25;5009236;28;20049;-78
2023/09/25 02:20:17;;;;;;;4.38;2.20;;;;;;;11.67;85.47;102046.53;5008958;28;20177;-77
2023/09/25 02:22:50;;;;;;;4.18;2.00;;;;;;;11.65;85.67;102050.94;5024899;28;20096;-76
2023/09/25 02:25:18;;;;;;;3.78;2.00;;;;;;;11.63;85.78;102050.97;5008903;28;20033;-76
2023/09/25 02:27:46;;;;;;;4.43;1.90;;;;;;;11.63;86.00;102045.69;5006737;28;20042;-76
2023/09/25 02:30:14;;;;;;;4.13;2.00;;;;;;;11.63;86.11;102043.06;4993686;28;20046;-77
2023/09/25 02:32:43;;;;;;;4.53;2.38;;;;;;;11.62;86.27;102043.09;5008143;28;20506;-77
2023/09/25 02:35:11;;;;;;;3.67;1.90;;;;;;;11.60;86.16;102035.16;5009029;28;21171;-76
2023/09/25 02:37:40;;;;;;;3.78;2.10;;;;;;;11.59;86.07;102043.13;5009679;28;20041;-76
2023/09/25 02:40:17;;;;;;;3.83;2.30;;;;;;;11.57;86.37;102035.25;5013447;28;20065;-76
2023/09/25 02:42:45;;;;;;;5.03;2.22;;;;;;;11.56;86.40;102037.88;5008362;28;20096;-78
2023/09/25 02:45:13;;;;;;;4.25;2.10;;;;;;;11.55;86.75;102030.88;5010861;28;20072;-78
2023/09/25 02:47:40;;;;;;;4.80;2.13;;;;;;;11.54;86.80;102039.69;5020374;28;20129;-75
2023/09/25 02:50:08;;;;;;;5.45;2.15;;;;;;;11.53;86.96;102048.50;4987773;28;20403;-75
2023/09/25 02:52:36;;;;;;;4.25;2.50;;;;;;;11.53;86.82;102043.22;5008192;28;20041;-75
2023/09/25 02:55:04;;;;;;;5.38;2.53;;;;;;;11.49;87.06;102045.06;5007364;28;20061;-75
2023/09/25 02:57:31;;;;;;;5.25;2.40;;;;;;;11.47;87.25;102044.19;5022512;28;20072;-75
2023/09/25 02:59:58;;;;;;;4.78;2.22;;;;;;;11.47;87.32;102039.78;5036286;28;20046;-75
2023/09/25 03:02:26;;;;;;;4.15;2.20;;;;;;;11.46;87.64;102040.66;5009181;28;20395;-76
2023/09/25 03:04:53;;;;;;;5.80;2.55;;;;;;;11.48;87.77;102044.16;5029097;28;20045;-76
2023/09/25 03:07:21;;;;;;;4.43;1.95;;;;;;;11.47;87.97;102039.78;5007714;28;20045;-76
2023/09/25 03:09:48;;;;;;;2.50;2.05;;;;;;;11.47;88.18;102037.13;5007402;28;20078;-75
2023/09/25 03:12:16;;;;;;;5.20;2.35;;;;;;;11.48;87.96;102041.53;5024239;28;20049;-76
2023/09/25 03:14:43;;;;;;;5.53;2.30;;;;;;;11.51;88.08;102048.53;5007172;28;20424;-76
2023/09/25 03:17:10;;;;;;;4.75;2.42;;;;;;;11.51;88.01;102035.31;5008163;28;20115;-76
2023/09/25 03:19:38;;;;;;;4.97;2.17;;;;;;;11.52;87.95;102034.41;5009882;28;20045;-75
2023/09/25 03:22:05;;;;;;;5.28;2.20;;;;;;;11.53;88.07;102033.53;5006455;28;20042;-77
2023/09/25 03:24:35;;;;;;;3.72;2.28;;;;;;;11.56;88.17;102037.88;5024326;28;20069;-77
2023/09/25 03:27:02;;;;;;;6.05;2.25;;;;;;;11.59;87.96;102036.09;5006195;28;20048;-76
2023/09/25 03:29:29;;;;;;;4.20;2.22;;;;;;;11.61;87.76;102044.84;5012684;28;20132;-78
2023/09/25 03:31:56;;;;;;;3.47;2.10;;;;;;;11.62;88.17;102041.31;5007420;28;20042;-77
2023/09/25 03:34:25;;;;;;;6.78;2.45;;;;;;;11.64;87.81;102043.94;5007428;28;20074;-75
2023/09/25 03:36:52;;;;;;;5.40;2.03;;;;;;;11.67;87.70;102049.16;5008090;28;20057;-76
2023/09/25 03:39:19;;;;;;;4.45;2.15;;;;;;;11.65;87.71;102041.28;5006536;28;20042;-75
2023/09/25 03:41:46;;;;;;;4.22;2.08;;;;;;;11.65;87.65;102046.56;5008906;28;20046;-76
2023/09/25 03:44:14;;;;;;;3.13;1.80;;;;;;;11.65;87.71;102043.91;5006237;28;20092;-75
2023/09/25 03:46:41;;;;;;;4.80;2.25;;;;;;;11.67;87.85;102040.38;5039668;28;20191;-75
2023/09/25 03:49:08;;;;;;;3.67;2.22;;;;;;;11.70;87.62;102042.97;5040163;28;20038;-75
2023/09/25 03:51:35;;;;;;;3.70;2.00;;;;;;;11.71;87.43;102044.69;4999858;28;20498;-75
2023/09/25 03:54:03;;;;;;;3.17;1.85;;;;;;;11.68;87.45;102050.91;5006300;28;20042;-75
2023/09/25 03:56:30;;;;;;;4.32;2.10;;;;;;;11.68;87.51;102037.69;5006150;28;20046;-75
2023/09/25 03:58:57;;;;;;;3.83;2.05;;;;;;;11.68;87.78;102037.69;5006712;28;20046;-75
2023/09/25 04:01:25;;;;;;;4.35;1.90;;;;;;;11.69;87.57;102044.72;5003418;28;20038;-75
2023/09/25 04:03:52;;;;;;;3.67;1.90;;;;;;;11.71;87.05;102049.97;5007774;28;20129;-75
2023/09/25 04:06:20;;;;;;;3.50;1.73;;;;;;;11.71;87.26;102045.59;5007949;28;20034;-75
2023/09/25 04:08:47;;;;;;;3.53;1.90;;;;;;;11.71;86.63;102042.94;5006745;28;20535;-77
2023/09/25 04:11:15;;;;;;;3.60;1.98;;;;;;;11.70;86.73;102048.25;5007982;28;20033;-77
2023/09/25 04:13:42;;;;;;;5.95;1.88;;;;;;;11.70;86.98;102048.25;5007486;28;20066;-83
2023/09/25 04:16:12;;;;;;;3.58;1.77;;;;;;;11.71;87.04;102049.97;5010258;28;20042;-82
2023/09/25 04:18:42;;;;;;;4.82;1.85;;;;;;;11.69;87.07;102047.38;5008353;28;20069;-82
2023/09/25 04:21:14;;;;;;;4.68;2.10;;;;;;;11.69;86.83;102049.16;5008414;28;20042;-80
2023/09/25 04:23:42;;;;;;;6.45;2.47;;;;;;;11.68;86.98;102047.41;5007909;28;20096;-80
2023/09/25 04:26:11;;;;;;;6.35;2.10;;;;;;;11.67;87.06;102041.22;5006566;28;20034;-81
2023/09/25 04:28:42;;;;;;;4.38;1.90;;;;;;;11.68;86.98;102040.34;5003481;28;20683;-81
2023/09/25 04:31:12;;;;;;;3.42;1.75;;;;;;;11.69;86.86;102041.22;5006241;28;20379;-76
2023/09/25 04:33:40;;;;;;;4.20;1.92;;;;;;;11.70;86.99;102049.13;5002808;28;20078;-75
2023/09/25 04:36:10;;;;;;;4.72;1.90;;;;;;;11.73;86.96;102050.84;5005874;28;20506;-76
2023/09/25 04:38:38;;;;;;;3.10;1.65;;;;;;;11.73;86.83;102053.47;5004046;28;20042;-75
2023/09/25 04:41:05;;;;;;;6.25;2.20;;;;;;;11.76;86.72;102043.72;5006214;28;20046;-76
2023/09/25 04:43:33;;;;;;;3.15;2.10;;;;;;;11.80;86.94;102048.06;5007978;28;20042;-75
2023/09/25 04:46:00;;;;;;;2.67;1.80;;;;;;;11.83;86.47;102060.34;5005109;28;20045;-75
2023/09/25 04:48:31;;;;;;;3.13;1.65;;;;;;;11.85;86.57;102058.56;5004986;28;20050;-75
2023/09/25 04:50:58;;;;;;;4.82;1.90;;;;;;;11.80;86.26;102053.38;5007335;28;20096;-75
2023/09/25 04:53:25;;;;;;;4.93;2.00;;;;;;;11.79;86.48;102053.41;5005294;28;20454;-75
2023/09/25 04:55:52;;;;;;;3.13;1.90;;;;;;;11.77;86.19;102050.75;5004543;28;20049;-75
2023/09/25 04:58:20;;;;;;;3.50;2.00;;;;;;;11.74;86.42;102047.28;5005122;28;20572;-76
2023/09/25 05:00:48;;;;;;;2.83;1.60;;;;;;;11.76;86.30;102066.66;5003918;28;20044;-76
2023/09/25 05:03:15;;;;;;;5.50;1.60;;;;;;;11.77;87.02;102061.31;5007346;28;20038;-76
2023/09/25 05:05:44;;;;;;;3.28;1.67;;;;;;;11.84;87.01;102059.47;5004997;28;20406;-75
2023/09/25 05:08:11;;;;;;;4.95;1.90;;;;;;;11.85;86.47;102055.94;5005289;28;20042;-76
2023/09/25 05:10:39;;;;;;;3.20;1.83;;;;;;;11.88;86.33;102061.19;5006551;28;20518;-75
2023/09/25 05:13:06;;;;;;;5.22;2.10;;;;;;;11.94;86.43;102060.19;5005149;28;20445;-75
2023/09/25 05:15:33;;;;;;;4.43;1.60;;;;;;;11.94;85.75;102065.50;5004783;28;20096;-75
2023/09/25 05:18:02;;;;;;;3.80;1.70;;;;;;;11.92;85.69;102064.63;5005056;28;20631;-76
2023/09/25 05:20:30;;;;;;;4.78;1.98;;;;;;;11.85;85.64;102057.72;5002440;28;20120;-75
2023/09/25 05:22:57;;;;;;;4.80;1.90;;;;;;;11.78;85.50;102059.56;5004710;28;20041;-76
2023/09/25 05:25:24;;;;;;;3.47;2.10;;;;;;;11.70;85.72;102057.03;5003515;28;20156;-77
2023/09/25 05:27:55;;;;;;;5.40;1.85;;;;;;;11.64;86.18;102055.38;5005453;28;20038;-76
2023/09/25 05:30:23;;;;;;;3.88;1.80;;;;;;;11.59;85.87;102056.34;5007796;28;20040;-76
2023/09/25 05:32:51;;;;;;;4.43;2.00;;;;;;;11.54;86.30;102056.41;5002768;28;20553;-76
2023/09/25 05:35:19;;;;;;;2.97;1.92;;;;;;;11.50;86.22;102060.88;5000713;28;20053;-76
2023/09/25 05:37:48;;;;;;;4.25;1.90;;;;;;;11.46;86.37;102059.16;5003805;28;20565;-77
2023/09/25 05:40:16;;;;;;;4.70;2.20;;;;;;;11.43;86.53;102061.84;5005460;28;20046;-76
2023/09/25 05:42:47;;;;;;;4.75;2.20;;;;;;;11.41;86.81;102058.34;4999232;28;20094;-76
2023/09/25 05:45:17;;;;;;;4.10;2.47;;;;;;;11.42;86.88;102069.78;5001176;28;20045;-76
2023/09/25 05:47:44;;;;;;;4.85;2.50;;;;;;;11.40;87.00;102068.91;5004105;28;20147;-76
2023/09/25 05:50:12;;;;;;;4.28;2.40;;;;;;;11.42;86.98;102069.78;5007071;28;20053;-76
2023/09/25 05:52:40;;;;;;;3.95;2.45;;;;;;;11.42;87.27;102073.31;5008804;28;20494;-76
2023/09/25 05:55:09;;;;;;;5.03;2.33;;;;;;;11.43;87.45;102069.78;5008030;28;20046;-76
2023/09/25 05:57:36;;;;;;;5.95;2.80;;;;;;;11.45;87.17;102070.59;5010206;28;20040;-77
2023/09/25 06:00:11;;;;;;;5.13;2.67;;;;;;;11.49;87.15;102068.81;5009504;28;21373;-76
2023/09/25 06:02:40;;;;;;;5.20;2.40;;;;;;;11.55;87.12;102076.63;5005614;28;20042;-76
2023/09/25 06:05:12;;;;;;;5.55;2.40;;;;;;;11.61;87.68;102080.97;5001620;28;20126;-76
2023/09/25 06:07:40;;;;;;;4.32;2.50;;;;;;;11.66;87.15;102081.75;4995746;28;20244;-76
2023/09/25 06:10:08;;;;;;;4.28;2.20;;;;;;;11.71;87.05;102081.69;5010220;28;20553;-75
2023/09/25 06:12:35;;;;;;;4.70;2.55;;;;;;;11.75;87.03;102088.66;5009584;28;20073;-75
2023/09/25 06:15:09;;;;;;;5.50;2.67;;;;;;;11.79;86.83;102079.81;5009512;28;20049;-75
2023/09/25 06:17:40;;;;;;;4.13;2.30;;;;;;;11.87;86.65;102087.59;5010039;28;20068;-75
2023/09/25 06:20:15;;;;;;;5.88;2.40;;;;;;;11.94;86.48;102083.97;5007778;28;20528;-75
2023/09/25 06:22:46;;;;;;;5.15;2.33;;;;;;;12.01;86.38;102090.94;5008600;28;20141;-75
2023/09/25 06:25:17;;;;;;;6.15;2.40;;;;;;;12.05;86.34;102095.28;5010050;28;20042;-75
2023/09/25 06:27:46;;;;;;;6.75;2.58;;;;;;;12.09;86.16;102088.19;5010075;28;20052;-75
2023/09/25 06:30:15;;;;;;;8.38;2.67;;;;;;;12.14;85.84;102096.03;5009010;28;20042;-75
2023/09/25 06:32:43;;;;;;;5.20;1.83;;;;;;;12.20;85.55;102101.19;5007136;28;20116;-74
2023/09/25 06:35:10;;;;;;;5.38;2.10;;;;;;;12.25;85.68;102097.56;5009188;28;20038;-75
2023/09/25 06:37:37;;;;;;;3.97;2.28;;;;;;;12.30;85.50;102092.22;5010296;28;20045;-75
2023/09/25 06:40:10;;;;;;;4.80;2.42;;;;;;;12.35;85.51;102095.66;5009136;28;20045;-75
2023/09/25 06:42:39;;;;;;;5.38;2.42;;;;;;;12.38;85.35;102094.72;5010345;28;20042;-75
2023/09/25 06:45:08;;;;;;;3.92;2.28;;;;;;;12.42;85.35;102099.94;5007687;28;20530;-74
2023/09/25 06:47:36;;;;;;;3.17;2.03;;;;;;;12.46;85.31;102092.81;5008264;28;20135;-75
2023/09/25 06:50:05;;;;;;;5.35;2.38;;;;;;;12.54;85.28;102093.53;5009940;28;20045;-75
2023/09/25 06:52:32;;;;;;;6.80;2.22;;;;;;;12.64;85.38;102096.00;5009996;28;20637;-74
2023/09/25 06:54:59;;;;;;;4.18;2.30;;;;;;;12.74;84.92;102093.16;5007780;28;20425;-73
2023/09/25 06:57:26;;;;;;;7.00;2.60;;;;;;;12.86;84.66;102086.75;5008912;28;20607;-73
2023/09/25 06:59:54;;;;;;;6.25;3.10;;;;;;;12.97;84.41;102089.16;5010012;28;20116;-73
2023/09/25 07:02:21;;;;;;;4.40;2.25;;;;;;;13.07;84.56;102079.28;5007352;28;20100;-73
2023/09/25 07:04:48;;;;;;;3.42;2.10;;;;;;;13.20;84.08;102087.81;5008479;28;20041;-73
2023/09/25 07:07:15;;;;;;;6.03;2.33;;;;;;;13.31;83.64;102090.25;4998105;28;20614;-75
2023/09/25 07:09:43;;;;;;;5.82;2.40;;;;;;;13.41;82.90;102096.25;5002734;28;20042;-74
2023/09/25 07:12:14;;;;;;;5.75;2.40;;;;;;;13.50;82.52;102088.09;5009779;28;20129;-74
2023/09/25 07:14:53;;;;;;;6.15;2.45;;;;;;;13.59;82.47;102093.16;5009198;28;20121;-74
2023/09/25 07:17:20;;;;;;;6.32;2.30;;;;;;;13.71;82.39;102097.34;5008409;28;20125;-74
2023/09/25 07:19:51;;;;;;;6.90;2.60;;;;;;;13.83;82.02;102093.50;5009751;28;20153;-74
2023/09/25 07:22:22;;;;;;;11.30;3.05;;;;;;;13.94;81.60;102090.59;5009089;28;20046;-74
2023/09/25 07:24:50;;;;;;;5.25;2.58;;;;;;;14.06;81.45;102089.44;5019805;28;20046;-74
2023/09/25 07:27:18;;;;;;;6.78;2.55;;;;;;;14.16;80.86;102096.25;5014781;28;20042;-74
2023/09/25 07:29:48;;;;;;;5.03;2.03;;;;;;;14.27;80.34;102098.59;5008785;28;20042;-73
2023/09/25 07:32:15;;;;;;;5.07;1.98;;;;;;;14.39;80.21;102100.94;5008412;28;20125;-74
2023/09/25 07:34:43;;;;;;;8.48;2.63;;;;;;;14.54;79.77;102091.69;5008522;28;20506;-74
2023/09/25 07:37:12;;;;;;;7.10;2.20;;;;;;;14.71;79.77;102093.94;5009105;28;20076;-73
2023/09/25 07:39:40;;;;;;;5.93;2.53;;;;;;;14.83;78.99;102090.06;5008489;28;20104;-74
2023/09/25 07:42:08;;;;;;;4.13;2.13;;;;;;;14.98;78.68;102093.19;5008519;28;20057;-74
2023/09/25 07:44:36;;;;;;;2.92;2.10;;;;;;;15.12;76.76;102095.44;5008105;28;20482;-74
2023/09/25 07:47:06;;;;;;;4.28;2.03;;;;;;;15.21;75.84;102097.81;5007664;28;20069;-74
2023/09/25 07:49:44;;;;;;;4.05;2.10;;;;;;;15.26;75.01;102098.53;5007989;28;21076;-74
2023/09/25 07:52:17;;;;;;;3.60;2.17;;;;;;;15.33;74.52;102099.22;5008049;28;20045;-73
2023/09/25 07:54:46;;;;;;;4.88;1.95;;;;;;;15.38;73.35;102098.19;5006073;28;20042;-72
2023/09/25 07:57:19;;;;;;;4.15;1.80;;;;;;;15.46;73.96;102086.47;5005984;28;20079;-73
2023/09/25 07:59:48;;;;;;;3.87;1.87;;;;;;;15.56;73.16;102085.25;5005150;28;20100;-73
2023/09/25 08:02:19;;;;;;;4.38;2.00;;;;;;;15.69;72.74;102083.06;5003115;28;20302;-77
2023/09/25 08:04:50;;;;;;;5.28;1.80;;;;;;;15.80;72.42;102086.25;5009268;28;20788;-78
2023/09/25 08:07:18;;;;;;;3.35;1.65;;;;;;;15.91;71.75;102087.72;5007709;28;20065;-77
2023/09/25 08:09:46;;;;;;;2.90;1.90;;;;;;;15.99;72.01;102086.53;5007745;28;20049;-77
2023/09/25 08:12:14;;;;;;;4.72;2.03;;;;;;;16.08;71.64;102090.69;5008540;28;20525;-77
2023/09/25 08:14:41;;;;;;;3.80;1.83;;;;;;;16.18;71.27;102093.03;5007311;28;20038;-76
2023/09/25 08:17:08;;;;;;;5.03;1.70;;;;;;;16.27;71.40;102087.41;5006363;28;20046;-77
2023/09/25 08:19:36;;;;;;;4.30;1.90;;;;;;;16.34;71.04;102088.06;5008785;28;20037;-77
2023/09/25 08:22:03;;;;;;;3.95;1.90;;;;;;;16.40;70.38;102086.06;5007418;28;20698;-77
2023/09/25 08:24:30;;;;;;;4.35;1.90;;;;;;;16.42;69.55;102092.19;5013021;28;20579;-77
2023/09/25 08:26:57;;;;;;;3.78;1.80;;;;;;;16.44;69.18;102092.13;5023436;28;20049;-77
2023/09/25 08:29:25;;;;;;;4.57;2.20;;;;;;;16.45;69.49;102086.75;5022787;28;20048;-76
2023/09/25 08:31:52;;;;;;;4.03;1.80;;;;;;;16.53;68.89;102096.28;5007878;28;20167;-76
2023/09/25 08:34:19;;;;;;;6.57;1.90;;;;;;;16.58;69.24;102094.31;5008265;28;20156;-76
2023/09/25 08:36:46;;;;;;;6.10;3.20;;;;;;;16.62;69.05;102098.59;5018014;28;20156;-77
2023/09/25 08:39:13;;;;;;;5.25;2.40;;;;;;;16.65;68.30;102097.63;5028419;28;20080;-77
2023/09/25 08:41:42;;;;;;;3.90;2.30;;;;;;;16.69;68.39;102088.56;5008071;28;20068;-77
2023/09/25 08:44:10;;;;;;;4.43;1.85;;;;;;;16.76;68.05;102082.97;5006957;28;20045;-76
2023/09/25 08:46:38;;;;;;;2.83;2.10;;;;;;;16.81;66.72;102073.97;5007939;28;20057;-76
2023/09/25 08:49:06;;;;;;;3.58;2.35;;;;;;;16.87;67.28;102082.59;5004270;28;20129;-77
2023/09/25 08:51:37;;;;;;;4.30;2.35;;;;;;;16.91;67.42;102078.03;5006468;28;20089;-77
2023/09/25 08:54:07;;;;;;;4.18;2.40;;;;;;;16.96;66.75;102069.91;5007226;28;20046;-76
2023/09/25 08:56:35;;;;;;;5.63;2.70;;;;;;;17.04;66.57;102067.81;5006809;28;20608;-76
2023/09/25 08:59:03;;;;;;;6.88;3.17;;;;;;;17.13;67.06;102077.25;5006437;28;20046;-78
2023/09/25 09:01:31;;;;;;;4.43;1.80;;;;;;;17.27;65.82;102076.72;5006622;28;20049;-76
2023/09/25 09:03:59;;;;;;;6.68;2.20;;;;;;;17.38;65.17;102080.69;5006928;28;20076;-76
2023/09/25 09:06:26;;;;;;;7.05;2.88;;;;;;;17.49;64.92;102076.72;5008161;28;20410;-76
2023/09/25 09:08:56;;;;;;;5.03;2.40;;;;;;;17.57;65.23;102084.44;5008004;28;20046;-74
2023/09/25 09:11:23;;;;;;;3.65;1.95;;;;;;;17.64;65.33;102081.47;5006556;28;20045;-75
2023/09/25 09:13:50;;;;;;;5.65;1.75;;;;;;;17.74;65.40;102076.59;5007885;28;20131;-76
2023/09/25 09:16:19;;;;;;;3.85;1.70;;;;;;;17.82;64.60;102070.97;5015158;28;20116;-76
2023/09/25 09:18:47;;;;;;;3.08;1.75;;;;;;;17.90;64.66;102065.31;5009483;28;20057;-77
2023/09/25 09:21:26;;;;;;;4.95;1.92;;;;;;;17.97;64.05;102065.00;5011700;28;20133;-77
2023/09/25 09:23:56;;;;;;;2.90;1.75;;;;;;;18.06;64.38;102061.09;5006363;28;20052;-76
2023/09/25 09:26:25;;;;;;;4.82;1.83;;;;;;;18.13;63.72;102064.38;5006856;28;20050;-76
2023/09/25 09:28:54;;;;;;;8.48;2.10;;;;;;;18.13;63.60;102067.88;5007654;28;20152;-76
2023/09/25 09:31:21;;;;;;;11.20;2.03;;;;;;;18.18;63.28;102064.16;5026846;28;20072;-76
2023/09/25 09:33:55;;;;;;;4.35;2.05;;;;;;;18.24;63.40;102063.88;5009015;28;20088;-77
2023/09/25 09:36:23;;;;;;;2.72;1.60;;;;;;;18.29;62.73;102059.22;5007198;28;20057;-76
2023/09/25 09:38:52;;;;;;;5.72;1.65;;;;;;;18.36;62.76;102063.34;5008064;28;20502;-76
2023/09/25 09:41:19;;;;;;;6.53;1.75;;;;;;;18.39;63.04;102055.22;5006240;28;20103;-76
2023/09/25 09:43:47;;;;;;;5.32;2.00;;;;;;;18.50;62.00;102059.22;5007172;28;20121;-76
2023/09/25 09:46:16;;;;;;;7.78;2.03;;;;;;;18.51;62.37;102061.81;5007397;28;20518;-77
2023/09/25 09:48:47;;;;;;;6.78;1.63;;;;;;;18.59;62.43;102067.66;5007700;28;20064;-76
2023/09/25 09:51:18;;;;;;;5.70;1.75;;;;;;;18.62;62.03;102061.31;5006915;28;20117;-76
2023/09/25 09:53:46;;;;;;;4.30;1.92;;;;;;;18.70;61.24;102053.84;5006349;28;20049;-76
2023/09/25 09:56:16;;;;;;;4.32;1.55;;;;;;;18.77;60.72;102057.13;5007426;28;20055;-77
2023/09/25 09:58:46;;;;;;;5.60;1.67;;;;;;;18.83;61.19;102062.16;5005414;28;20048;-76
2023/09/25 10:01:14;;;;;;;3.78;1.48;;;;;;;18.91;60.65;102054.66;5026835;28;20088;-77
2023/09/25 10:03:42;;;;;;;5.22;2.25;;;;;;;19.00;61.26;102053.41;5026228;28;20049;-76
2023/09/25 10:06:11;;;;;;;3.60;1.60;;;;;;;19.11;60.43;102058.22;5009203;28;20049;-77
2023/09/25 10:08:38;;;;;;;4.72;1.67;;;;;;;19.22;60.49;102063.09;5002877;28;20050;-76
2023/09/25 10:11:19;;;;;;;2.97;1.42;;;;;;;19.35;60.41;102066.88;5005904;28;20049;-77
2023/09/25 10:13:46;;;;;;;4.47;1.58;;;;;;;19.43;60.76;102061.19;4999855;28;20049;-76
2023/09/25 10:16:15;;;;;;;5.75;1.67;;;;;;;19.55;61.10;102070.41;5006407;28;20046;-76
2023/09/25 10:18:43;;;;;;;3.78;1.60;;;;;;;19.65;61.01;102070.81;5004539;28;20623;-76
2023/09/25 10:21:14;;;;;;;4.30;1.35;;;;;;;19.75;60.60;102073.91;5007748;28;20069;-75
2023/09/25 10:23:50;;;;;;;5.60;1.60;;;;;;;19.81;60.83;102078.97;5007132;28;20129;-75
2023/09/25 10:26:20;;;;;;;4.93;1.92;;;;;;;19.91;59.09;102082.94;5005615;28;20077;-75
2023/09/25 10:29:14;;;;;;;4.47;1.70;;;;;;;19.99;59.31;102074.53;5006300;28;20100;-76
2023/09/25 10:31:48;;;;;;;3.05;1.45;;;;;;;20.14;59.42;102076.41;5015338;28;20073;-76
2023/09/25 10:34:16;;;;;;;7.28;1.92;;;;;;;20.27;59.17;102070.44;5006122;28;20058;-76
2023/09/25 10:36:47;;;;;;;7.07;2.00;;;;;;;20.39;58.22;102061.75;5009445;28;20528;-76
2023/09/25 10:39:19;;;;;;;3.35;1.60;;;;;;;20.51;57.41;102067.38;5010883;28;20719;-76
2023/09/25 10:42:01;;;;;;;2.08;1.65;;;;;;;20.58;57.57;102064.31;5009406;28;20042;-76
2023/09/25 10:44:29;;;;;;;3.58;1.67;;;;;;;20.67;57.06;102057.59;5010361;28;20144;-76
2023/09/25 10:47:05;;;;;;;4.85;1.92;;;;;;;20.71;57.01;102053.78;5010682;28;20129;-77
2023/09/25 10:49:37;;;;;;;3.92;1.80;;;;;;;20.71;56.00;102060.97;5008934;28;20052;-77
2023/09/25 10:52:04;;;;;;;4.40;2.10;;;;;;;20.67;56.32;102054.94;4996354;28;20112;-76
2023/09/25 10:54:34;;;;;;;3.90;2.13;;;;;;;20.63;56.46;102056.91;5006055;28;20145;-77
2023/09/25 10:57:01;;;;;;;3.83;1.90;;;;;;;20.64;56.70;102061.31;5008829;28;20057;-76
2023/09/25 10:59:29;;;;;;;4.53;1.80;;;;;;;20.63;56.40;102061.38;5006019;28;20050;-76
2023/09/25 11:01:57;;;;;;;5.40;1.80;;;;;;;20.67;55.94;102056.72;5019558;28;20044;-77
2023/09/25 11:04:24;;;;;;;4.00;2.20;;;;;;;20.72;56.27;102060.03;5030066;28;20056;-75
2023/09/25 11:06:52;;;;;;;3.40;2.00;;;;;;;20.86;56.43;102054.81;5015151;28;20095;-77
2023/09/25 11:09:19;;;;;;;5.22;2.40;;;;;;;20.99;56.35;102052.34;4997971;28;20100;-74
2023/09/25 11:11:46;;;;;;;2.80;1.80;;;;;;;21.16;56.36;102051.41;5014090;28;20052;-79
2023/09/25 11:14:14;;;;;;;3.85;2.10;;;;;;;21.32;56.16;102042.47;5011287;28;20164;-74
2023/09/25 11:16:41;;;;;;;3.03;1.60;;;;;;;21.44;56.71;102035.53;5010516;28;20108;-76
2023/09/25 11:19:15;;;;;;;4.57;1.70;;;;;;;21.58;55.94;102038.28;5009559;28;20042;-77
2023/09/25 11:21:47;;;;;;;13.40;2.30;;;;;;;21.67;54.53;102043.16;5011040;28;20046;-77
2023/09/25 11:24:15;;;;;;;2.67;1.70;;;;;;;21.74;54.22;102053.50;5004092;28;20041;-75
2023/09/25 11:26:43;;;;;;;4.38;1.90;;;;;;;21.78;54.38;102047.88;4990285;28;20058;-78
2023/09/25 11:29:12;;;;;;;7.25;2.08;;;;;;;21.79;53.54;102054.13;4990599;28;20573;-78
2023/09/25 11:31:40;;;;;;;2.70;1.70;;;;;;;21.78;54.05;102050.56;5002203;28;20537;-80